Time;durP1;ratioP1;P1;durP2;ratioP2;P2;SDS_P1;SDS_P2;PMS_P1;PMS_P2;Temp;Humidity;BMP_temperature;BMP_pressure;BME280_temperature;BME280_humidity;BME280_pressure;Samples;Min_cycle;Max_cycle;Signal;HPM_P1;HPM_P2
2023/06/09 00:00:11;;;;;;;10.43;8.07;;;;;;;16.44;100.00;98935.16;5026483;28;20280;-77
2023/06/09 00:02:40;;;;;;;9.10;7.80;;;;;;;16.22;100.00;98936.28;5028163;28;20313;-77
2023/06/09 00:05:09;;;;;;;13.87;8.00;;;;;;;15.90;100.00;98936.47;5023579;28;20189;-77
2023/06/09 00:07:39;;;;;;;8.70;7.67;;;;;;;15.95;100.00;98942.28;5031604;28;20573;-77
2023/06/09 00:10:08;;;;;;;13.10;8.23;;;;;;;16.05;100.00;98932.44;5031066;28;20222;-77
2023/06/09 00:12:37;;;;;;;10.30;7.90;;;;;;;15.96;100.00;98928.78;5018187;28;20284;-77
2023/06/09 00:15:08;;;;;;;9.60;8.40;;;;;;;16.18;100.00;98932.16;5030369;28;20209;-76
2023/06/09 00:17:39;;;;;;;8.63;7.80;;;;;;;16.22;100.00;98920.25;5027560;28;20210;-77
2023/06/09 00:20:13;;;;;;;9.00;7.93;;;;;;;16.14;100.00;98922.75;5026397;28;20212;-77
2023/06/09 00:22:45;;;;;;;11.67;7.87;;;;;;;16.33;100.00;98922.78;5023660;28;20205;-77
2023/06/09 00:25:15;;;;;;;8.73;7.80;;;;;;;16.31;100.00;98922.06;5031192;28;20252;-77
2023/06/09 00:27:44;;;;;;;8.80;7.90;;;;;;;16.43;100.00;98928.97;5007528;28;20226;-77
2023/06/09 00:30:16;;;;;;;9.30;7.50;;;;;;;16.51;100.00;98918.41;5006891;28;20194;-77
2023/06/09 00:33:04;;;;;;;8.27;7.40;;;;;;;16.56;100.00;98904.59;5006364;28;20381;-77
2023/06/09 00:35:33;;;;;;;8.77;7.00;;;;;;;16.60;100.00;98909.53;5003474;28;20696;-77
2023/06/09 00:38:03;;;;;;;7.70;7.00;;;;;;;16.70;100.00;98909.56;5003405;28;20191;-77
2023/06/09 00:40:33;;;;;;;7.87;7.07;;;;;;;16.58;100.00;98902.63;5009143;28;20199;-77
2023/06/09 00:43:01;;;;;;;9.13;7.37;;;;;;;16.71;100.00;98905.06;5003679;28;20214;-77
2023/06/09 00:45:30;;;;;;;9.87;7.60;;;;;;;16.73;100.00;98898.56;5012630;28;20251;-77
2023/06/09 00:47:58;;;;;;;8.83;6.77;;;;;;;16.65;100.00;98901.06;5026393;28;20196;-77
2023/06/09 00:50:27;;;;;;;7.37;6.60;;;;;;;16.78;100.00;98898.97;5023120;28;20214;-77
2023/06/09 00:52:57;;;;;;;9.20;7.23;;;;;;;16.64;100.00;98896.72;5021218;28;20197;-77
2023/06/09 00:55:28;;;;;;;8.00;7.20;;;;;;;16.65;100.00;98895.72;5027859;28;20205;-77
2023/06/09 00:57:58;;;;;;;10.00;7.20;;;;;;;16.71;100.00;98902.38;5025681;28;20205;-77
2023/06/09 01:00:28;;;;;;;8.20;7.07;;;;;;;16.64;100.00;98903.91;5026456;28;20604;-77
2023/06/09 01:03:00;;;;;;;7.70;7.00;;;;;;;16.71;100.00;98907.72;5024031;28;20206;-77
2023/06/09 01:05:30;;;;;;;8.23;7.43;;;;;;;16.57;100.00;98903.59;5030647;28;20186;-77
2023/06/09 01:08:07;;;;;;;8.10;7.20;;;;;;;16.26;100.00;98911.78;5026098;28;20281;-77
2023/06/09 01:10:42;;;;;;;8.50;7.70;;;;;;;16.31;100.00;98901.53;5025013;28;20543;-77
2023/06/09 01:13:22;;;;;;;10.27;7.50;;;;;;;16.41;100.00;98904.19;5024107;28;20284;-77
2023/06/09 01:15:58;;;;;;;8.77;7.73;;;;;;;16.38;100.00;98906.28;5029158;28;20296;-77
2023/06/09 01:18:31;;;;;;;8.00;7.20;;;;;;;16.33;100.00;98904.06;5021947;28;20198;-77
2023/06/09 01:21:12;;;;;;;7.90;7.10;;;;;;;16.30;100.00;98907.84;5030304;28;20209;-77
2023/06/09 01:23:52;;;;;;;10.20;7.53;;;;;;;16.25;100.00;98911.94;5028613;28;20652;-77
2023/06/09 01:26:25;;;;;;;9.43;7.40;;;;;;;16.26;100.00;98910.94;5026011;28;20193;-77
2023/06/09 01:28:56;;;;;;;8.27;7.50;;;;;;;16.09;100.00;98917.81;5028943;28;20249;-77
2023/06/09 01:31:25;;;;;;;12.77;8.10;;;;;;;16.11;100.00;98915.84;5026228;28;20273;-77
2023/06/09 01:33:55;;;;;;;8.77;7.47;;;;;;;16.15;100.00;98917.28;5028724;28;20431;-77
2023/06/09 01:36:24;;;;;;;11.27;8.07;;;;;;;16.03;100.00;98916.56;5027440;28;20222;-77
2023/06/09 01:38:52;;;;;;;10.47;8.40;;;;;;;16.00;100.00;98923.97;5025813;28;20204;-77
2023/06/09 01:41:23;;;;;;;8.50;7.70;;;;;;;16.07;100.00;98917.13;5024830;28;20217;-76
2023/06/09 01:43:51;;;;;;;9.30;8.50;;;;;;;15.88;100.00;98909.91;5025697;28;20212;-77
2023/06/09 01:46:20;;;;;;;9.43;8.40;;;;;;;16.09;100.00;98919.66;5019719;28;20212;-77
2023/06/09 01:48:58;;;;;;;9.50;8.60;;;;;;;16.13;100.00;98919.25;5024529;28;20202;-77
2023/06/09 01:51:36;;;;;;;9.67;8.30;;;;;;;16.17;100.00;98914.44;5026621;28;20260;-77
2023/06/09 01:54:10;;;;;;;8.70;7.90;;;;;;;16.13;100.00;98919.25;5025313;28;20281;-77
2023/06/09 01:56:44;;;;;;;9.17;8.30;;;;;;;16.10;100.00;98903.47;5029449;28;20757;-77
2023/06/09 01:59:17;;;;;;;9.03;7.97;;;;;;;16.16;100.00;98912.75;5027003;28;20272;-77
2023/06/09 02:01:47;;;;;;;10.03;7.93;;;;;;;16.17;100.00;98909.09;5027034;28;20229;-77
2023/06/09 02:04:17;;;;;;;9.27;8.20;;;;;;;16.11;100.00;98906.97;5029670;28;20277;-76
2023/06/09 02:06:47;;;;;;;8.47;7.63;;;;;;;16.13;100.00;98899.69;5028504;28;20194;-77
2023/06/09 02:09:16;;;;;;;9.43;8.33;;;;;;;16.08;100.00;98900.09;5026317;28;20213;-77
2023/06/09 02:11:52;;;;;;;9.53;8.33;;;;;;;15.78;100.00;98901.03;5023535;28;20201;-77
2023/06/09 02:14:21;;;;;;;9.90;8.10;;;;;;;15.62;100.00;98901.56;5025574;28;20197;-77
2023/06/09 02:16:53;;;;;;;9.47;8.43;;;;;;;15.72;100.00;98897.06;5026167;28;20225;-77
2023/06/09 02:19:22;;;;;;;8.93;8.03;;;;;;;15.72;100.00;98902.41;5023169;28;20247;-77
2023/06/09 02:21:51;;;;;;;9.43;8.47;;;;;;;15.75;100.00;98898.66;5021358;28;20217;-77
2023/06/09 02:24:21;;;;;;;9.37;8.37;;;;;;;15.75;100.00;98906.66;5026635;28;20708;-77
2023/06/09 02:26:52;;;;;;;11.37;8.40;;;;;;;15.89;100.00;98905.41;5024811;28;20233;-77
2023/06/09 02:29:20;;;;;;;9.60;8.67;;;;;;;15.90;100.00;98893.75;5027958;28;20257;-77
2023/06/09 02:31:50;;;;;;;9.67;8.70;;;;;;;15.87;100.00;98902.88;5018536;28;20585;-77
2023/06/09 02:34:20;;;;;;;9.27;8.47;;;;;;;15.88;100.00;98893.03;5026907;28;20277;-77
2023/06/09 02:36:49;;;;;;;9.60;8.70;;;;;;;15.88;100.00;98898.38;5025362;28;20221;-77
2023/06/09 02:39:17;;;;;;;9.57;8.60;;;;;;;15.81;100.00;98899.91;5026570;28;20194;-77
2023/06/09 02:41:46;;;;;;;9.60;8.67;;;;;;;15.93;100.00;98898.84;5028138;28;20719;-77
2023/06/09 02:44:17;;;;;;;9.40;8.50;;;;;;;15.85;100.00;98902.19;5030512;28;20237;-77
2023/06/09 02:46:45;;;;;;;10.83;8.80;;;;;;;15.79;100.00;98899.22;4995277;28;20213;-77
2023/06/09 02:49:16;;;;;;;10.90;8.47;;;;;;;15.72;100.00;98902.41;5035810;28;20256;-77
2023/06/09 02:51:44;;;;;;;9.07;7.87;;;;;;;15.71;100.00;98907.91;5029586;28;20205;-77
2023/06/09 02:54:14;;;;;;;9.67;8.50;;;;;;;15.77;100.00;98906.53;5027812;28;20289;-77
2023/06/09 02:56:46;;;;;;;10.37;9.30;;;;;;;15.29;100.00;98901.84;4969563;28;20267;-77
2023/06/09 02:59:14;;;;;;;10.43;9.47;;;;;;;15.39;100.00;98905.38;4967226;28;20682;-77
2023/06/09 03:01:44;;;;;;;10.93;9.43;;;;;;;15.43;100.00;98901.47;4965167;28;20200;-77
2023/06/09 03:04:13;;;;;;;12.50;9.07;;;;;;;15.32;100.00;98905.06;4968069;28;20196;-77
2023/06/09 03:06:43;;;;;;;9.73;8.73;;;;;;;15.19;100.00;98904.47;4970730;28;20219;-77
2023/06/09 03:09:12;;;;;;;9.10;8.23;;;;;;;15.30;100.00;98908.88;4972136;28;20274;-77
2023/06/09 03:11:41;;;;;;;10.67;8.93;;;;;;;15.30;100.00;98914.19;4965617;28;20223;-77
2023/06/09 03:14:09;;;;;;;13.43;9.93;;;;;;;15.11;100.00;98909.63;4977268;28;20664;-77
2023/06/09 03:16:38;;;;;;;10.50;9.60;;;;;;;14.97;100.00;98909.97;5027848;28;20284;-76
2023/06/09 03:19:08;;;;;;;11.73;9.93;;;;;;;14.85;100.00;98922.53;5025796;28;20217;-76
2023/06/09 03:21:39;;;;;;;10.47;9.33;;;;;;;14.95;100.00;98923.41;5026343;28;20309;-77
2023/06/09 03:24:09;;;;;;;11.37;9.77;;;;;;;15.00;100.00;98923.88;5031889;28;20198;-77
2023/06/09 03:26:37;;;;;;;10.40;9.43;;;;;;;15.07;100.00;98925.06;4982424;28;20665;-77
2023/06/09 03:29:05;;;;;;;11.67;10.13;;;;;;;15.07;100.00;98924.22;4936600;28;20220;-77
2023/06/09 03:31:34;;;;;;;11.20;10.10;;;;;;;15.02;100.00;98929.09;4966173;28;20195;-77
2023/06/09 03:34:02;;;;;;;11.20;9.10;;;;;;;15.03;100.00;98922.78;4969865;28;20214;-77
2023/06/09 03:36:34;;;;;;;10.80;9.70;;;;;;;15.05;100.00;98929.66;4967710;28;20200;-77
2023/06/09 03:39:03;;;;;;;11.33;9.67;;;;;;;14.96;100.00;98932.25;4970577;28;20291;-76
2023/06/09 03:41:31;;;;;;;10.33;9.20;;;;;;;14.98;100.00;98931.19;4968752;28;20302;-76
2023/06/09 03:44:00;;;;;;;11.13;9.93;;;;;;;14.94;100.00;98931.56;4970035;28;20724;-77
2023/06/09 03:46:29;;;;;;;13.07;10.03;;;;;;;14.86;100.00;98937.53;4976759;28;20664;-77
2023/06/09 03:48:58;;;;;;;11.70;9.83;;;;;;;14.86;100.00;98934.88;5034814;28;20194;-77
2023/06/09 03:51:27;;;;;;;16.63;10.10;;;;;;;14.86;100.00;98935.75;5027350;28;20202;-77
2023/06/09 03:53:57;;;;;;;11.23;10.00;;;;;;;14.93;100.00;98932.53;5031573;28;20201;-77
2023/06/09 03:56:26;;;;;;;11.87;9.37;;;;;;;15.00;100.00;98934.56;5027132;28;20196;-77
2023/06/09 03:58:55;;;;;;;16.37;10.53;;;;;;;15.00;100.00;98933.72;5025245;28;20252;-77
2023/06/09 04:01:25;;;;;;;9.83;8.93;;;;;;;15.07;100.00;98932.22;5031634;28;20209;-77
2023/06/09 04:03:55;;;;;;;11.80;10.10;;;;;;;14.90;100.00;98931.00;5025967;28;20198;-77
2023/06/09 04:06:23;;;;;;;11.00;9.90;;;;;;;15.04;100.00;98938.63;5025293;28;20615;-77
2023/06/09 04:08:53;;;;;;;11.60;10.00;;;;;;;15.12;100.00;98938.81;5024276;28;20209;-77
2023/06/09 04:11:23;;;;;;;10.97;9.87;;;;;;;15.13;100.00;98927.19;5025339;28;20202;-77
2023/06/09 04:13:55;;;;;;;10.33;9.33;;;;;;;15.25;100.00;98933.28;5023325;28;20213;-77
2023/06/09 04:16:25;;;;;;;10.93;9.73;;;;;;;15.29;100.00;98933.88;4997261;28;20280;-78
2023/06/09 04:18:53;;;;;;;13.60;10.10;;;;;;;15.35;100.00;98923.50;5027548;28;20305;-77
2023/06/09 04:21:22;;;;;;;10.67;9.67;;;;;;;15.48;100.00;98920.59;5021571;28;20207;-77
2023/06/09 04:23:50;;;;;;;10.40;9.33;;;;;;;15.54;100.00;98917.41;5031282;28;20222;-77
2023/06/09 04:26:19;;;;;;;10.90;9.90;;;;;;;15.58;100.00;98916.13;5025155;28;20198;-77
2023/06/09 04:28:49;;;;;;;10.83;9.47;;;;;;;15.66;100.00;98918.16;5024669;28;20249;-77
2023/06/09 04:31:18;;;;;;;10.87;9.50;;;;;;;15.64;100.00;98914.78;5024733;28;20194;-77
2023/06/09 04:33:46;;;;;;;10.77;9.67;;;;;;;15.78;100.00;98914.38;5027679;28;20280;-77
2023/06/09 04:36:17;;;;;;;11.20;10.00;;;;;;;15.84;100.00;98918.34;4969998;28;20330;-77
2023/06/09 04:38:47;;;;;;;12.47;10.47;;;;;;;15.88;100.00;98912.59;4964438;28;20212;-77
2023/06/09 04:41:17;;;;;;;11.60;10.40;;;;;;;15.90;100.00;98907.09;4961693;28;20196;-77
2023/06/09 04:43:49;;;;;;;10.63;9.60;;;;;;;15.93;100.00;98907.69;4963845;28;20212;-77
2023/06/09 04:46:25;;;;;;;11.13;10.07;;;;;;;16.06;100.00;98911.91;4967762;28;20193;-77
2023/06/09 04:48:54;;;;;;;12.37;10.27;;;;;;;16.03;100.00;98905.88;4965856;28;20203;-77
2023/06/09 04:51:24;;;;;;;10.50;9.30;;;;;;;16.23;100.00;98912.06;4967861;28;20210;-76
2023/06/09 04:53:54;;;;;;;11.20;9.47;;;;;;;16.21;100.00;98907.84;4982882;28;20227;-77
2023/06/09 04:56:23;;;;;;;10.43;9.43;;;;;;;16.28;100.00;98904.47;5027947;28;20197;-77
2023/06/09 04:58:51;;;;;;;10.13;9.10;;;;;;;16.53;100.00;98903.06;5023725;28;20245;-77
2023/06/09 05:01:21;;;;;;;10.77;9.23;;;;;;;16.50;100.00;98899.81;5024215;28;20206;-76
2023/06/09 05:03:50;;;;;;;9.77;8.43;;;;;;;16.66;100.00;98899.25;5025096;28;20198;-77
2023/06/09 05:06:18;;;;;;;9.33;8.43;;;;;;;16.94;100.00;98908.22;5024477;28;20204;-77
2023/06/09 05:08:47;;;;;;;10.57;8.47;;;;;;;16.95;100.00;98905.41;5030514;28;20248;-77
2023/06/09 05:11:16;;;;;;;11.10;9.13;;;;;;;16.91;100.00;98903.19;5023696;28;20201;-77
2023/06/09 05:13:44;;;;;;;12.00;8.70;;;;;;;17.00;100.00;98897.81;5022932;28;20206;-77
2023/06/09 05:16:15;;;;;;;10.00;9.00;;;;;;;16.88;100.00;98902.44;5029425;28;20224;-76
2023/06/09 05:18:45;;;;;;;9.43;8.40;;;;;;;17.00;100.00;98897.81;5026727;28;20542;-77
2023/06/09 05:21:14;;;;;;;9.37;8.40;;;;;;;17.09;100.00;98902.28;5023921;28;20212;-77
2023/06/09 05:23:42;;;;;;;11.07;8.60;;;;;;;17.16;100.00;98897.16;5024605;28;20196;-77
2023/06/09 05:26:10;;;;;;;8.70;7.83;;;;;;;17.31;100.00;98895.72;5025019;28;20630;-77
2023/06/09 05:28:39;;;;;;;8.57;7.67;;;;;;;17.52;100.00;98894.63;5027548;28;20591;-77
2023/06/09 05:31:07;;;;;;;9.07;7.33;;;;;;;17.78;100.00;98884.09;5024144;28;20228;-77
2023/06/09 05:33:37;;;;;;;8.30;7.57;;;;;;;17.89;100.00;98894.59;5029091;28;20201;-77
2023/06/09 05:36:12;;;;;;;8.23;7.43;;;;;;;17.91;100.00;98896.13;5007731;28;20262;-77
2023/06/09 05:38:40;;;;;;;8.23;7.40;;;;;;;18.11;100.00;98885.25;5001431;28;20229;-77
2023/06/09 05:41:08;;;;;;;8.13;7.33;;;;;;;18.23;100.00;98895.59;5007277;28;20190;-77
2023/06/09 05:43:37;;;;;;;7.73;7.03;;;;;;;18.25;100.00;98882.91;5006985;28;20373;-77
2023/06/09 05:46:06;;;;;;;7.57;6.77;;;;;;;18.18;100.00;98889.03;5004016;28;20206;-76
2023/06/09 05:48:35;;;;;;;8.33;7.00;;;;;;;18.42;100.00;98893.75;4999685;28;20219;-77
2023/06/09 05:51:03;;;;;;;8.43;6.67;;;;;;;18.41;100.00;98892.06;5005968;28;20210;-77
2023/06/09 05:53:34;;;;;;;8.70;7.13;;;;;;;18.60;100.00;98902.63;5009595;28;20202;-77
2023/06/09 05:56:04;;;;;;;6.73;6.13;;;;;;;18.64;100.00;98895.97;5027128;28;20649;-77
2023/06/09 05:58:33;;;;;;;7.17;6.47;;;;;;;18.65;100.00;98902.22;5025777;28;20301;-77
2023/06/09 06:01:03;;;;;;;7.37;6.60;;;;;;;18.64;100.00;98898.66;5025617;28;20710;-77
2023/06/09 06:03:32;;;;;;;6.83;6.13;;;;;;;18.71;100.00;98896.19;5027234;28;20236;-77
2023/06/09 06:06:01;;;;;;;7.23;6.13;;;;;;;18.91;100.00;98902.22;5025569;28;20281;-77
2023/06/09 06:08:31;;;;;;;7.70;7.00;;;;;;;18.95;100.00;98899.06;5027325;28;20200;-77
2023/06/09 06:11:01;;;;;;;6.80;6.20;;;;;;;19.05;100.00;98907.84;5032279;28;20592;-77
2023/06/09 06:13:29;;;;;;;6.82;5.95;;;;;;;19.22;100.00;98905.28;5029714;28;20198;-77
2023/06/09 06:16:00;;;;;;;6.70;5.80;;;;;;;19.38;100.00;98913.41;5022887;28;20202;-77
2023/06/09 06:18:28;;;;;;;8.07;5.93;;;;;;;19.31;100.00;98915.06;5031373;28;20194;-77
2023/06/09 06:20:57;;;;;;;8.15;6.32;;;;;;;19.50;100.00;98909.47;5026044;28;20206;-77
2023/06/09 06:23:26;;;;;;;7.13;6.47;;;;;;;19.16;100.00;98915.66;5025704;28;20568;-77
2023/06/09 06:25:54;;;;;;;6.97;6.27;;;;;;;19.13;100.00;98915.97;5033216;28;20201;-77
2023/06/09 06:28:24;;;;;;;7.73;6.27;;;;;;;19.33;100.00;98915.75;5031101;28;20243;-78
2023/06/09 06:30:52;;;;;;;6.65;6.00;;;;;;;19.55;100.00;98923.22;5027060;28;20241;-77
2023/06/09 06:33:21;;;;;;;6.90;6.30;;;;;;;19.53;100.00;98927.94;5029871;28;20204;-77
2023/06/09 06:35:49;;;;;;;7.18;6.28;;;;;;;19.86;100.00;98933.47;5026166;28;20209;-77
2023/06/09 06:38:18;;;;;;;7.00;6.33;;;;;;;19.83;100.00;98931.09;5031734;28;20201;-77
2023/06/09 06:40:47;;;;;;;7.30;6.50;;;;;;;19.93;100.00;98927.28;5027804;28;20241;-78
2023/06/09 06:43:16;;;;;;;6.77;6.07;;;;;;;19.85;100.00;98932.63;5031382;28;20229;-77
2023/06/09 06:45:46;;;;;;;7.43;6.15;;;;;;;19.98;100.00;98932.19;5033002;28;20201;-77
2023/06/09 06:48:15;;;;;;;7.20;6.03;;;;;;;19.97;100.00;98933.16;5033136;28;20265;-78
2023/06/09 06:50:43;;;;;;;7.88;5.80;;;;;;;20.20;100.00;98931.56;5031298;28;20261;-78
2023/06/09 06:53:12;;;;;;;7.18;5.68;;;;;;;20.38;100.00;98923.34;5027278;28;20706;-77
2023/06/09 06:55:40;;;;;;;6.20;5.60;;;;;;;20.43;100.00;98925.56;5025288;28;20204;-78
2023/06/09 06:58:09;;;;;;;6.85;5.80;;;;;;;20.42;100.00;98926.53;5028973;28;20216;-78
2023/06/09 07:00:38;;;;;;;6.20;5.60;;;;;;;20.54;100.00;98938.69;5029880;28;20296;-77
2023/06/09 07:03:12;;;;;;;6.35;5.75;;;;;;;20.53;100.00;98937.84;5027613;28;20232;-77
2023/06/09 07:05:40;;;;;;;6.27;5.67;;;;;;;20.68;100.00;98939.88;5024185;28;20213;-77
2023/06/09 07:08:09;;;;;;;7.22;6.53;;;;;;;20.72;100.00;98950.13;5027343;28;20537;-77
2023/06/09 07:10:37;;;;;;;7.50;6.47;;;;;;;20.86;100.00;98946.78;5025468;28;20198;-77
2023/06/09 07:13:05;;;;;;;7.47;6.78;;;;;;;20.81;100.00;98945.59;5029484;28;20201;-77
2023/06/09 07:15:36;;;;;;;7.43;6.03;;;;;;;20.93;100.00;98941.53;5032172;28;20208;-77
2023/06/09 07:18:05;;;;;;;6.43;5.82;;;;;;;21.14;100.00;98941.88;5030109;28;20362;-76
2023/06/09 07:20:35;;;;;;;7.78;6.90;;;;;;;21.02;100.00;98940.53;5029664;28;20220;-77
2023/06/09 07:23:04;;;;;;;7.75;7.03;;;;;;;20.84;100.00;98942.56;5027194;28;20202;-76
2023/06/09 07:25:32;;;;;;;8.48;7.20;;;;;;;20.98;100.00;98947.28;5027644;28;20249;-77
2023/06/09 07:28:01;;;;;;;9.20;6.47;;;;;;;21.39;100.00;98941.84;5028096;28;20295;-77
2023/06/09 07:30:29;;;;;;;7.75;6.47;;;;;;;21.40;100.00;98949.75;5029673;28;20201;-77
2023/06/09 07:32:58;;;;;;;7.93;6.38;;;;;;;21.33;100.00;98946.09;5028381;28;20205;-77
2023/06/09 07:35:29;;;;;;;11.02;6.13;;;;;;;21.36;100.00;98948.41;5027264;28;20197;-77
2023/06/09 07:38:00;;;;;;;9.05;6.60;;;;;;;21.41;100.00;98947.88;5026298;28;20645;-77
2023/06/09 07:40:29;;;;;;;6.60;6.00;;;;;;;21.73;100.00;98946.13;5031919;28;20222;-77
2023/06/09 07:42:57;;;;;;;6.38;5.78;;;;;;;21.86;100.00;98949.94;5024011;28;20198;-77
2023/06/09 07:45:27;;;;;;;7.05;6.25;;;;;;;21.96;100.00;98942.47;5032116;28;20229;-77
2023/06/09 07:47:56;;;;;;;7.85;5.85;;;;;;;22.15;100.00;98949.31;5029692;28;20208;-77
2023/06/09 07:50:26;;;;;;;5.70;5.20;;;;;;;22.38;100.00;98951.19;5028619;28;20194;-77
2023/06/09 07:52:54;;;;;;;6.40;5.75;;;;;;;22.24;100.00;98950.94;5029471;28;20232;-77
2023/06/09 07:55:25;;;;;;;6.97;6.03;;;;;;;22.28;100.00;98951.41;5023522;28;20660;-77
2023/06/09 07:57:54;;;;;;;6.80;5.60;;;;;;;22.67;100.00;98936.97;4998335;28;20276;-77
2023/06/09 08:00:23;;;;;;;5.88;5.38;;;;;;;22.79;100.00;98938.25;5027350;28;20226;-78
2023/06/09 08:03:00;;;;;;;6.00;5.50;;;;;;;22.78;100.00;98937.41;5029722;28;20197;-77
2023/06/09 08:05:29;;;;;;;6.10;5.60;;;;;;;22.98;100.00;98937.78;5027668;28;20280;-77
2023/06/09 08:08:02;;;;;;;7.18;5.50;;;;;;;22.74;100.00;98935.25;5029613;28;20213;-76
2023/06/09 08:10:32;;;;;;;6.85;6.18;;;;;;;23.07;100.00;98930.44;5031744;28;20202;-78
2023/06/09 08:13:01;;;;;;;9.52;5.75;;;;;;;23.11;100.00;98926.34;5028769;28;20197;-77
2023/06/09 08:15:30;;;;;;;6.07;5.47;;;;;;;22.86;100.00;98928.41;5021688;28;20652;-77
2023/06/09 08:18:02;;;;;;;5.97;5.38;;;;;;;22.99;100.00;98930.50;5030419;28;20295;-77
2023/06/09 08:20:33;;;;;;;7.72;5.90;;;;;;;23.25;100.00;98920.09;5021629;28;20260;-77
2023/06/09 08:23:02;;;;;;;6.82;5.43;;;;;;;23.57;100.00;98921.59;5023995;28;20214;-77
2023/06/09 08:25:34;;;;;;;6.28;5.65;;;;;;;23.82;100.00;98913.22;4949972;28;20207;-77
2023/06/09 08:28:03;;;;;;;5.97;5.30;;;;;;;23.99;100.00;98917.38;4943774;28;20236;-78
2023/06/09 08:30:33;;;;;;;6.68;5.97;;;;;;;23.69;100.00;98914.72;4912121;29;20292;-77
2023/06/09 08:33:01;;;;;;;9.95;8.95;;;;;;;23.74;100.00;98919.59;4904821;29;20209;-78
2023/06/09 08:35:32;;;;;;;6.10;5.60;;;;;;;23.88;100.00;98913.28;4910882;29;20654;-77
2023/06/09 08:38:01;;;;;;;8.32;7.05;;;;;;;23.85;100.00;98913.69;4871967;29;20214;-77
2023/06/09 08:40:31;;;;;;;15.10;12.70;;;;;;;23.93;100.00;98913.59;4875149;29;20230;-77
2023/06/09 08:43:05;;;;;;;10.77;8.90;;;;;;;23.96;100.00;98907.78;4879826;29;20212;-77
2023/06/09 08:45:35;;;;;;;8.73;7.32;;;;;;;24.04;100.00;98911.41;4930803;29;20270;-77
2023/06/09 08:48:06;;;;;;;7.65;6.15;;;;;;;23.67;100.00;98922.19;4938352;28;20198;-78
2023/06/09 08:50:41;;;;;;;5.63;5.13;;;;;;;24.16;100.00;98908.00;4958653;28;20204;-77
2023/06/09 08:53:14;;;;;;;5.63;5.13;;;;;;;24.24;100.00;98902.47;4970110;28;20203;-77
2023/06/09 08:55:45;;;;;;;7.35;6.40;;;;;;;24.25;100.00;98898.75;4968525;28;20210;-77
2023/06/09 08:58:16;;;;;;;5.60;5.00;;;;;;;24.57;96.12;98907.41;4964777;28;20216;-78
2023/06/09 09:00:47;;;;;;;6.35;4.75;;;;;;;24.60;95.62;98903.47;4970070;28;20223;-77
2023/06/09 09:03:16;;;;;;;5.57;5.07;;;;;;;24.79;95.75;98892.81;5011508;28;20190;-77
2023/06/09 09:05:45;;;;;;;5.85;5.30;;;;;;;24.54;97.10;98895.09;5033497;28;20277;-78
2023/06/09 09:08:14;;;;;;;5.65;5.10;;;;;;;24.82;93.64;98897.84;5029363;28;20309;-77
2023/06/09 09:10:43;;;;;;;6.78;5.07;;;;;;;25.26;98.85;98895.88;5022617;28;20193;-77
2023/06/09 09:13:11;;;;;;;6.60;5.57;;;;;;;25.55;96.60;98889.38;5031834;28;20194;-77
2023/06/09 09:15:49;;;;;;;5.80;5.20;;;;;;;25.40;91.24;98895.78;5021214;28;20226;-78
2023/06/09 09:18:20;;;;;;;5.80;5.30;;;;;;;25.48;89.57;98899.34;5030395;28;20193;-78
2023/06/09 09:20:50;;;;;;;8.32;5.63;;;;;;;25.61;90.68;98897.56;5024581;28;20241;-78
2023/06/09 09:23:18;;;;;;;6.22;5.72;;;;;;;25.74;95.98;98896.81;5025024;28;20198;-78
2023/06/09 09:25:50;;;;;;;5.80;5.30;;;;;;;25.87;93.38;98896.88;5021217;28;20202;-78
2023/06/09 09:28:18;;;;;;;5.65;5.15;;;;;;;25.99;90.10;98897.13;5022654;28;20221;-77
2023/06/09 09:30:51;;;;;;;6.13;5.32;;;;;;;26.02;86.75;98891.28;5027180;28;20233;-78
2023/06/09 09:33:22;;;;;;;6.55;5.30;;;;;;;25.76;82.71;98888.47;4991487;28;20239;-78
2023/06/09 09:35:55;;;;;;;5.53;4.88;;;;;;;25.95;82.97;98885.81;5024899;28;20205;-78
2023/06/09 09:38:27;;;;;;;8.18;4.93;;;;;;;26.35;82.06;98883.25;4983697;28;20585;-78
2023/06/09 09:40:57;;;;;;;6.03;5.53;;;;;;;26.55;75.83;98883.28;4983617;28;20227;-78
2023/06/09 09:43:29;;;;;;;5.90;5.25;;;;;;;26.23;74.81;98880.28;4982128;28;20195;-78
2023/06/09 09:46:04;;;;;;;5.22;4.72;;;;;;;26.75;73.48;98873.28;4982771;28;20289;-78
2023/06/09 09:48:36;;;;;;;6.47;5.18;;;;;;;26.98;74.34;98880.16;4983544;28;20206;-78
2023/06/09 09:51:05;;;;;;;6.70;4.95;;;;;;;26.94;74.52;98866.16;4988600;28;20249;-77
2023/06/09 09:53:35;;;;;;;5.45;4.95;;;;;;;26.95;72.98;98870.53;4977155;28;20203;-77
2023/06/09 09:56:05;;;;;;;5.70;4.93;;;;;;;26.71;73.34;98871.16;4997815;28;20225;-78
2023/06/09 09:58:36;;;;;;;5.20;4.72;;;;;;;27.27;69.60;98868.84;5019335;28;20282;-78
2023/06/09 10:01:08;;;;;;;6.53;5.10;;;;;;;27.51;63.24;98863.75;5025168;28;20301;-78
2023/06/09 10:03:41;;;;;;;5.88;5.28;;;;;;;27.60;65.36;98865.16;5027657;28;20208;-78
2023/06/09 10:06:15;;;;;;;5.75;5.25;;;;;;;27.60;63.92;98865.16;5029889;28;20204;-78
2023/06/09 10:08:43;;;;;;;9.25;5.50;;;;;;;27.74;60.80;98855.13;5019933;28;20217;-78
2023/06/09 10:11:13;;;;;;;6.90;5.05;;;;;;;27.40;60.86;98859.78;5019238;28;20204;-77
2023/06/09 10:13:42;;;;;;;5.18;4.68;;;;;;;27.95;62.72;98858.34;5029238;28;20217;-77
2023/06/09 10:16:13;;;;;;;7.15;5.15;;;;;;;27.68;60.69;98864.97;5025190;28;20201;-77
2023/06/09 10:18:43;;;;;;;6.75;5.00;;;;;;;27.63;57.12;98851.16;5025824;28;20379;-77
2023/06/09 10:21:12;;;;;;;6.63;5.13;;;;;;;27.63;59.21;98848.44;5015925;28;20232;-77
2023/06/09 10:23:41;;;;;;;4.95;4.45;;;;;;;28.07;55.16;98847.59;5022967;28;20240;-78
2023/06/09 10:26:10;;;;;;;6.53;5.43;;;;;;;28.09;55.11;98844.69;5025039;28;20210;-78
2023/06/09 10:28:39;;;;;;;6.28;5.45;;;;;;;27.86;57.64;98846.03;5022612;28;20264;-78
2023/06/09 10:31:14;;;;;;;5.50;4.90;;;;;;;28.14;55.72;98847.56;5029396;28;20559;-77
2023/06/09 10:33:45;;;;;;;5.65;5.15;;;;;;;28.15;56.23;98841.06;5024776;28;20228;-78
2023/06/09 10:36:15;;;;;;;8.07;5.25;;;;;;;28.72;52.83;98842.75;5023895;28;20212;-78
2023/06/09 10:38:47;;;;;;;6.00;5.28;;;;;;;28.86;49.04;98843.50;5025385;28;20284;-77
2023/06/09 10:41:22;;;;;;;6.38;5.22;;;;;;;29.13;47.11;98843.25;5024909;28;20304;-77
2023/06/09 10:44:27;;;;;;;6.95;5.03;;;;;;;29.42;46.40;98839.78;5024157;28;20201;-78
2023/06/09 10:46:58;;;;;;;9.55;5.57;;;;;;;29.38;46.42;98837.75;5028881;28;20198;-78
2023/06/09 10:49:38;;;;;;;6.97;5.80;;;;;;;28.90;46.45;98830.25;5023364;28;20256;-78
2023/06/09 10:52:10;;;;;;;5.75;5.15;;;;;;;29.06;47.08;98835.16;5025736;28;20201;-78
2023/06/09 10:54:39;;;;;;;6.38;5.72;;;;;;;29.44;45.92;98831.38;5023084;28;20293;-78
2023/06/09 10:57:39;;;;;;;5.95;5.15;;;;;;;29.34;43.97;98831.91;5022198;28;20194;-78
2023/06/09 11:00:16;;;;;;;7.03;5.68;;;;;;;29.95;43.67;98827.38;5026457;28;20206;-78
2023/06/09 11:03:30;;;;;;;8.93;6.80;;;;;;;29.62;43.70;98818.56;5028869;28;20229;-78
2023/06/09 11:06:01;;;;;;;6.45;5.68;;;;;;;30.04;43.09;98813.19;4993970;28;20222;-77
2023/06/09 11:09:09;;;;;;;6.03;5.30;;;;;;;29.98;42.79;98813.25;4990003;28;20227;-78
2023/06/09 11:11:50;;;;;;;5.43;4.93;;;;;;;30.16;39.52;98811.34;4973660;28;20205;-78
2023/06/09 11:14:52;;;;;;;5.35;4.85;;;;;;;30.08;40.12;98819.03;4993917;28;20206;-78
2023/06/09 11:17:25;;;;;;;5.13;4.63;;;;;;;30.27;39.26;98814.34;4987309;28;20226;-78
2023/06/09 11:20:14;;;;;;;4.80;4.40;;;;;;;30.65;39.94;98803.84;4987953;28;20195;-77
2023/06/09 11:23:04;;;;;;;4.88;4.47;;;;;;;30.64;39.25;98812.25;4942026;28;20225;-78
2023/06/09 11:25:37;;;;;;;6.65;4.80;;;;;;;30.64;39.76;98807.66;5030893;28;20201;-78
2023/06/09 11:28:19;;;;;;;5.25;4.72;;;;;;;30.43;40.94;98803.56;5030660;28;20225;-78
2023/06/09 11:31:02;;;;;;;5.22;4.72;;;;;;;30.49;38.80;98799.88;5029438;28;20209;-77
2023/06/09 11:33:46;;;;;;;6.85;4.82;;;;;;;31.00;40.02;98798.38;5031538;28;20653;-78
2023/06/09 11:36:21;;;;;;;7.85;5.43;;;;;;;31.04;38.47;98794.09;5032823;28;20201;-78
2023/06/09 11:38:51;;;;;;;7.53;5.55;;;;;;;30.39;40.21;98794.16;4949718;28;20686;-78
2023/06/09 11:41:25;;;;;;;7.28;4.93;;;;;;;30.77;39.12;98784.69;4955086;28;20200;-78